Time;durP1;ratioP1;P1;durP2;ratioP2;P2;SDS_P1;SDS_P2;PMS_P1;PMS_P2;Temp;Humidity;BMP_temperature;BMP_pressure;BME280_temperature;BME280_humidity;BME280_pressure;Samples;Min_cycle;Max_cycle;Signal;HPM_P1;HPM_P2
2022/04/09 00:01:21;;;;;;;10.77;2.63;;;6.50;96.30;;;;;;6098227;23;88007;-69
2022/04/09 00:03:48;;;;;;;11.60;2.38;;;6.60;96.10;;;;;;6097417;23;89609;-70
2022/04/09 00:06:15;;;;;;;9.43;2.00;;;6.50;96.00;;;;;;6071816;23;91879;-69
2022/04/09 00:08:42;;;;;;;7.00;2.38;;;6.40;96.20;;;;;;6097885;23;87992;-69
2022/04/09 00:11:09;;;;;;;6.88;2.35;;;6.40;96.20;;;;;;6071804;23;93790;-69
2022/04/09 00:13:37;;;;;;;10.18;1.80;;;6.40;96.30;;;;;;6097880;23;89089;-69
2022/04/09 00:16:04;;;;;;;8.60;2.35;;;6.40;96.50;;;;;;6070961;23;91111;-69
2022/04/09 00:18:31;;;;;;;8.98;2.35;;;6.40;96.30;;;;;;6098271;23;88464;-69
2022/04/09 00:20:58;;;;;;;8.85;2.47;;;6.40;96.50;;;;;;6047626;23;90027;-69
2022/04/09 00:23:25;;;;;;;6.93;1.95;;;6.40;96.40;;;;;;6097896;23;88771;-69
2022/04/09 00:25:52;;;;;;;9.88;2.20;;;6.30;96.30;;;;;;6097690;23;88717;-69
2022/04/09 00:28:19;;;;;;;4.97;1.95;;;6.30;96.20;;;;;;6071396;23;89259;-69
2022/04/09 00:30:46;;;;;;;9.57;2.42;;;6.20;96.20;;;;;;6071433;23;90614;-70
2022/04/09 00:33:13;;;;;;;7.97;1.80;;;6.10;96.20;;;;;;6097842;23;88058;-70
2022/04/09 00:35:40;;;;;;;11.48;2.13;;;6.10;96.30;;;;;;6097869;23;88585;-69
2022/04/09 00:38:07;;;;;;;5.07;2.00;;;6.00;96.40;;;;;;6071380;23;89576;-69
2022/04/09 00:40:34;;;;;;;9.13;2.50;;;5.90;96.60;;;;;;6071641;23;90839;-69
2022/04/09 00:43:02;;;;;;;3.85;1.75;;;5.90;96.70;;;;;;6047226;23;91210;-69
2022/04/09 00:45:29;;;;;;;7.82;1.75;;;5.80;96.80;;;;;;6071903;23;91166;-69
2022/04/09 00:47:56;;;;;;;9.07;2.13;;;5.80;96.90;;;;;;6071987;23;88634;-69
2022/04/09 00:50:23;;;;;;;7.60;2.08;;;5.80;97.00;;;;;;6097719;23;88014;-69
2022/04/09 00:52:55;;;;;;;4.25;1.40;;;5.80;97.00;;;;;;6071620;23;90447;-69
2022/04/09 00:58:13;;;;;;;4.25;1.55;;;5.90;97.10;;;;;;6072942;23;88223;-69
2022/04/09 01:00:42;;;;;;;7.00;2.10;;;6.00;97.00;;;;;;6048437;23;90955;-69
2022/04/09 01:03:16;;;;;;;5.25;1.80;;;6.00;97.00;;;;;;6072283;23;91294;-69
2022/04/09 01:05:44;;;;;;;6.10;1.80;;;6.00;96.90;;;;;;6072909;23;91095;-69
2022/04/09 01:08:12;;;;;;;10.05;2.30;;;6.00;96.80;;;;;;6072624;23;88379;-69
2022/04/09 01:10:39;;;;;;;9.63;1.90;;;6.00;96.90;;;;;;6073070;23;90912;-69
2022/04/09 01:13:06;;;;;;;4.32;2.00;;;6.00;97.00;;;;;;6072341;23;91322;-69
2022/04/09 01:15:34;;;;;;;9.85;2.00;;;6.00;97.00;;;;;;6048092;23;91230;-69
2022/04/09 01:18:02;;;;;;;3.97;1.70;;;6.00;96.90;;;;;;6072023;23;89076;-69
2022/04/09 01:20:30;;;;;;;4.22;1.50;;;6.00;97.00;;;;;;6048734;23;91057;-69
2022/04/09 01:22:57;;;;;;;4.53;1.90;;;6.00;97.00;;;;;;6072472;23;91086;-69
2022/04/09 01:25:24;;;;;;;5.78;1.73;;;6.10;96.90;;;;;;6048337;23;90695;-69
2022/04/09 01:27:56;;;;;;;7.57;1.80;;;6.10;96.90;;;;;;6049466;23;89073;-69
2022/04/09 01:30:23;;;;;;;3.80;1.50;;;6.00;96.70;;;;;;6049100;23;88039;-69
2022/04/09 01:32:50;;;;;;;8.48;1.70;;;6.00;96.60;;;;;;6072645;23;91119;-69
2022/04/09 01:35:17;;;;;;;7.93;1.83;;;6.00;96.60;;;;;;6073137;23;91134;-69
2022/04/09 01:37:44;;;;;;;5.20;1.33;;;5.90;96.50;;;;;;6048573;23;89024;-69
2022/04/09 01:40:11;;;;;;;7.15;1.73;;;5.80;96.60;;;;;;6072406;23;91234;-69
2022/04/09 01:42:43;;;;;;;3.70;1.23;;;5.80;96.50;;;;;;6072068;23;90528;-70
2022/04/09 01:45:10;;;;;;;5.55;1.60;;;5.70;96.80;;;;;;6072303;23;91950;-69
2022/04/09 01:47:42;;;;;;;6.03;1.55;;;5.70;96.80;;;;;;6072637;23;89914;-69
2022/04/09 01:50:10;;;;;;;2.17;1.40;;;5.70;96.80;;;;;;6049934;23;88476;-69
2022/04/09 01:52:37;;;;;;;6.10;1.40;;;5.70;96.70;;;;;;6098872;23;88366;-69
2022/04/09 01:55:06;;;;;;;3.92;1.42;;;5.70;96.70;;;;;;6072247;23;89930;-69
2022/04/09 01:57:34;;;;;;;2.97;1.45;;;5.60;96.70;;;;;;6048492;23;89088;-69
2022/04/09 02:00:05;;;;;;;4.68;1.55;;;5.70;96.80;;;;;;6072709;23;90325;-69
2022/04/09 02:02:39;;;;;;;4.97;1.38;;;5.60;96.60;;;;;;6098792;23;88405;-69
2022/04/09 02:05:08;;;;;;;6.22;1.30;;;5.60;96.90;;;;;;6071977;23;90120;-69
2022/04/09 02:07:35;;;;;;;4.13;1.48;;;5.60;96.80;;;;;;6072261;23;89029;-69
2022/04/09 02:10:05;;;;;;;6.72;1.42;;;5.60;96.90;;;;;;6072166;23;89709;-69
2022/04/09 02:13:02;;;;;;;5.38;1.45;;;5.60;96.70;;;;;;6072278;23;90643;-69
2022/04/09 02:15:29;;;;;;;5.13;1.70;;;5.60;96.70;;;;;;6069015;23;91120;-69
2022/04/09 02:17:59;;;;;;;3.10;1.00;;;5.50;96.60;;;;;;6098780;23;87920;-69
2022/04/09 02:20:27;;;;;;;8.48;1.45;;;5.40;96.80;;;;;;6072572;23;90887;-69
2022/04/09 02:22:55;;;;;;;6.55;1.30;;;5.40;97.00;;;;;;6048271;23;89878;-69
2022/04/09 02:25:22;;;;;;;7.38;1.30;;;5.40;97.00;;;;;;6098835;23;88686;-69
2022/04/09 02:27:49;;;;;;;5.65;1.42;;;5.40;97.10;;;;;;6072528;23;87970;-69
2022/04/09 02:30:19;;;;;;;7.35;1.92;;;5.30;97.10;;;;;;6071988;23;91147;-69
2022/04/09 02:32:52;;;;;;;5.38;1.60;;;5.30;97.10;;;;;;6048846;23;91624;-69
2022/04/09 02:35:31;;;;;;;7.93;1.67;;;5.30;97.40;;;;;;6098319;23;87954;-69
2022/04/09 02:37:59;;;;;;;6.03;1.23;;;5.30;97.30;;;;;;6072579;23;89001;-69
2022/04/09 02:40:29;;;;;;;7.45;1.40;;;5.30;97.30;;;;;;6072621;23;90685;-69
2022/04/09 02:42:56;;;;;;;8.32;1.90;;;5.40;97.30;;;;;;6072329;23;91024;-69
2022/04/09 02:45:24;;;;;;;4.95;1.88;;;5.50;97.30;;;;;;6048021;23;91072;-69
2022/04/09 02:47:52;;;;;;;5.30;1.40;;;5.60;97.10;;;;;;6072374;23;88873;-69
2022/04/09 02:50:22;;;;;;;4.35;1.20;;;5.70;97.00;;;;;;6072422;23;89383;-69
2022/04/09 02:52:49;;;;;;;6.75;1.60;;;5.70;96.80;;;;;;6048320;23;91196;-69
2022/04/09 02:55:18;;;;;;;3.03;1.38;;;5.70;96.90;;;;;;6071703;23;89830;-69
2022/04/09 02:57:46;;;;;;;3.40;1.40;;;5.60;96.90;;;;;;6071929;23;88768;-69
2022/04/09 03:00:17;;;;;;;5.22;1.60;;;5.60;96.90;;;;;;6072310;23;90666;-69
2022/04/09 03:02:44;;;;;;;3.47;1.42;;;5.50;97.00;;;;;;6072170;23;91439;-69
2022/04/09 03:05:21;;;;;;;5.68;1.50;;;5.50;96.90;;;;;;6049405;23;90536;-69
2022/04/09 03:07:49;;;;;;;5.53;1.20;;;5.40;96.90;;;;;;6072525;23;88187;-69
2022/04/09 03:10:15;;;;;;;2.65;1.40;;;5.30;96.80;;;;;;6071858;23;90793;-69
2022/04/09 03:12:48;;;;;;;3.75;1.40;;;5.30;97.10;;;;;;6072214;23;91418;-69
2022/04/09 03:15:16;;;;;;;5.85;1.65;;;5.30;97.10;;;;;;6071204;23;91020;-69
2022/04/09 03:17:44;;;;;;;5.70;1.45;;;5.30;97.30;;;;;;6072496;23;88023;-69
2022/04/09 03:20:13;;;;;;;5.35;1.83;;;5.30;97.20;;;;;;6048123;23;90806;-69
2022/04/09 03:22:45;;;;;;;5.65;1.38;;;5.30;97.10;;;;;;6071556;23;91385;-69
2022/04/09 03:25:17;;;;;;;8.95;1.95;;;5.30;97.20;;;;;;6071975;23;91530;-69
2022/04/09 03:27:47;;;;;;;4.72;1.55;;;5.20;97.30;;;;;;6098558;23;87899;-69
2022/04/09 03:30:14;;;;;;;9.93;2.25;;;5.20;97.30;;;;;;6071774;23;89961;-69
2022/04/09 03:32:42;;;;;;;5.05;1.52;;;5.20;97.40;;;;;;6072268;23;91465;-69
2022/04/09 03:35:15;;;;;;;5.22;1.75;;;5.20;97.40;;;;;;6071933;23;91078;-69
2022/04/09 03:37:45;;;;;;;7.80;1.85;;;5.20;97.60;;;;;;6048327;23;89160;-69
2022/04/09 03:40:14;;;;;;;8.70;1.95;;;5.20;97.40;;;;;;6072498;23;91053;-69
2022/04/09 03:42:42;;;;;;;5.35;1.52;;;5.20;97.40;;;;;;6071825;23;89555;-69
2022/04/09 03:45:10;;;;;;;5.97;1.60;;;5.20;97.40;;;;;;6071772;23;91209;-69
2022/04/09 03:47:37;;;;;;;8.45;1.65;;;5.20;97.60;;;;;;6047350;23;88688;-69
2022/04/09 03:50:09;;;;;;;11.25;3.03;;;5.30;97.70;;;;;;6048855;23;90713;-69
2022/04/09 03:52:36;;;;;;;7.90;1.55;;;5.30;97.80;;;;;;6072369;23;88685;-69
2022/04/09 03:55:04;;;;;;;8.15;1.42;;;5.40;97.80;;;;;;6047841;23;90903;-69
2022/04/09 03:57:31;;;;;;;6.28;1.88;;;5.50;97.70;;;;;;6071675;23;89394;-69
2022/04/09 03:59:59;;;;;;;8.63;1.83;;;5.50;97.90;;;;;;6071691;23;90106;-69
2022/04/09 04:02:26;;;;;;;6.35;1.15;;;5.40;97.50;;;;;;6071642;23;90949;-69
2022/04/09 04:05:01;;;;;;;5.20;2.13;;;5.50;97.60;;;;;;6072205;23;90546;-69
2022/04/09 04:07:30;;;;;;;5.33;1.87;;;5.40;97.60;;;;;;6047761;23;89344;-69
2022/04/09 04:10:04;;;;;;;4.47;1.80;;;5.40;97.60;;;;;;6071652;23;91209;-69
2022/04/09 04:12:31;;;;;;;7.82;1.73;;;5.30;97.60;;;;;;6070990;23;90409;-69
2022/04/09 04:14:58;;;;;;;3.05;1.55;;;5.30;97.60;;;;;;6071786;23;89175;-69
2022/04/09 04:17:26;;;;;;;10.38;1.80;;;5.20;97.50;;;;;;6071588;23;88740;-69
2022/04/09 04:19:53;;;;;;;5.38;2.20;;;5.20;97.50;;;;;;6071492;23;90677;-69
2022/04/09 04:22:21;;;;;;;4.75;2.00;;;5.10;97.60;;;;;;6071392;23;91016;-69
2022/04/09 04:24:49;;;;;;;7.05;1.88;;;5.10;98.00;;;;;;6047800;23;90547;-69
2022/04/09 04:27:16;;;;;;;8.73;1.70;;;5.00;97.80;;;;;;6072581;23;89515;-69
2022/04/09 04:29:43;;;;;;;9.23;1.75;;;5.00;97.90;;;;;;6073216;23;90995;-69
2022/04/09 04:32:10;;;;;;;3.92;2.13;;;5.00;97.90;;;;;;6073036;23;91084;-69
2022/04/09 04:34:37;;;;;;;4.25;1.50;;;4.90;97.80;;;;;;6072554;23;90845;-69
2022/04/09 04:37:05;;;;;;;5.55;1.63;;;4.90;97.80;;;;;;6098795;23;88691;-69
2022/04/09 04:39:32;;;;;;;5.28;1.50;;;4.80;97.90;;;;;;6072502;23;90329;-69
2022/04/09 04:41:59;;;;;;;4.60;1.95;;;4.90;98.00;;;;;;6048787;23;91342;-69
2022/04/09 04:44:28;;;;;;;6.82;1.45;;;4.90;97.90;;;;;;6072619;23;91055;-69
2022/04/09 04:46:58;;;;;;;6.82;1.75;;;4.90;98.00;;;;;;6073178;23;89408;-69
2022/04/09 04:49:27;;;;;;;5.93;1.33;;;4.80;98.00;;;;;;6072305;23;91202;-69
2022/04/09 04:52:01;;;;;;;5.15;1.50;;;4.90;98.00;;;;;;6073044;23;89786;-69
2022/04/09 04:54:30;;;;;;;8.20;1.77;;;4.90;98.10;;;;;;6072859;23;90830;-69
2022/04/09 04:56:57;;;;;;;7.15;1.33;;;4.90;98.10;;;;;;6099157;23;88085;-69
2022/04/09 04:59:24;;;;;;;2.92;1.20;;;5.00;97.90;;;;;;6048461;23;90651;-69
2022/04/09 05:01:52;;;;;;;8.82;1.83;;;5.10;97.90;;;;;;6072043;23;91851;-69
2022/04/09 05:04:19;;;;;;;2.83;1.33;;;5.10;98.00;;;;;;6072307;23;91602;-69
2022/04/09 05:06:53;;;;;;;4.87;1.60;;;5.20;97.80;;;;;;6072941;23;89003;-69
2022/04/09 05:09:22;;;;;;;3.00;1.20;;;5.20;97.70;;;;;;6072323;23;91032;-69
2022/04/09 05:11:55;;;;;;;4.10;1.20;;;5.10;97.70;;;;;;6072832;23;91427;-69
2022/04/09 05:14:29;;;;;;;1.80;1.25;;;5.20;97.70;;;;;;6049479;23;89607;-69
2022/04/09 05:17:01;;;;;;;2.78;1.40;;;5.20;97.70;;;;;;6044284;23;89131;-69
2022/04/09 05:19:32;;;;;;;1.95;1.20;;;5.20;97.60;;;;;;6068274;23;90755;-69
2022/04/09 05:22:06;;;;;;;6.93;1.80;;;5.20;97.50;;;;;;6068325;23;89979;-69
2022/04/09 05:24:40;;;;;;;3.92;1.35;;;5.20;97.60;;;;;;6068035;23;90886;-69
2022/04/09 05:27:07;;;;;;;5.07;1.98;;;5.20;97.60;;;;;;6067584;23;89489;-69
2022/04/09 05:29:35;;;;;;;6.22;1.20;;;5.30;97.70;;;;;;6067627;23;90756;-69
2022/04/09 05:32:03;;;;;;;5.47;1.50;;;5.30;97.60;;;;;;6067829;23;91050;-69
2022/04/09 05:34:30;;;;;;;5.57;1.35;;;5.40;97.70;;;;;;6067574;23;90984;-69
2022/04/09 05:36:57;;;;;;;3.97;1.75;;;5.50;97.50;;;;;;6043372;23;89525;-70
2022/04/09 05:39:24;;;;;;;7.00;1.65;;;5.50;97.40;;;;;;6043318;23;90280;-69
2022/04/09 05:41:55;;;;;;;5.78;1.20;;;5.60;97.30;;;;;;6067927;23;91074;-69
2022/04/09 05:44:22;;;;;;;2.85;1.20;;;5.80;97.20;;;;;;6068201;23;91138;-70
2022/04/09 05:46:49;;;;;;;6.57;1.30;;;6.00;97.00;;;;;;6043810;23;88970;-70
2022/04/09 05:49:16;;;;;;;6.22;1.40;;;6.10;96.80;;;;;;6067958;23;88195;-70
2022/04/09 05:51:44;;;;;;;3.97;1.23;;;6.30;96.80;;;;;;6066938;23;91889;-70
2022/04/09 05:54:11;;;;;;;8.68;1.58;;;6.60;96.50;;;;;;6043360;23;91655;-70
2022/04/09 05:56:42;;;;;;;4.97;1.10;;;6.90;95.70;;;;;;6067442;23;88641;-69
2022/04/09 05:59:09;;;;;;;6.22;1.08;;;7.20;95.10;;;;;;6043515;23;90004;-69
2022/04/09 06:01:53;;;;;;;7.60;1.65;;;7.30;94.70;;;;;;6067495;23;89544;-69
2022/04/09 06:04:20;;;;;;;4.65;1.52;;;7.40;94.60;;;;;;6069358;23;88003;-70
2022/04/09 06:06:50;;;;;;;3.83;1.02;;;7.50;94.80;;;;;;6067469;23;88010;-70
2022/04/09 06:09:21;;;;;;;6.60;1.40;;;7.70;94.70;;;;;;6068362;23;89660;-70
2022/04/09 06:12:09;;;;;;;5.88;1.55;;;7.90;94.30;;;;;;6068314;23;88013;-70
2022/04/09 06:14:50;;;;;;;6.53;1.77;;;8.10;94.00;;;;;;6067182;23;90588;-70
2022/04/09 06:17:17;;;;;;;6.00;1.77;;;8.50;93.70;;;;;;6042930;23;89316;-70
2022/04/09 06:19:44;;;;;;;6.18;1.50;;;8.90;93.20;;;;;;6043075;23;90636;-70
2022/04/09 06:22:12;;;;;;;3.45;1.15;;;9.50;92.80;;;;;;6067609;23;91326;-70
2022/04/09 06:24:39;;;;;;;9.70;1.65;;;9.80;91.70;;;;;;6067482;23;91027;-70
2022/04/09 06:27:06;;;;;;;5.47;1.50;;;9.90;91.10;;;;;;6067716;23;87935;-70
2022/04/09 06:29:36;;;;;;;8.82;1.83;;;9.80;91.10;;;;;;6067028;23;90783;-70
2022/04/09 06:32:04;;;;;;;4.75;1.60;;;9.60;91.60;;;;;;6043062;23;90702;-70
2022/04/09 06:34:31;;;;;;;9.02;1.80;;;9.40;92.00;;;;;;6043142;23;91007;-70
2022/04/09 06:37:04;;;;;;;4.13;1.10;;;9.10;91.80;;;;;;6067504;23;88956;-70
2022/04/09 06:39:35;;;;;;;4.35;1.35;;;8.90;92.50;;;;;;6067540;23;90745;-70
2022/04/09 06:42:03;;;;;;;5.80;1.50;;;8.70;92.70;;;;;;6042722;23;91303;-70
2022/04/09 06:44:50;;;;;;;4.75;1.20;;;8.60;93.00;;;;;;6068704;23;89906;-70
2022/04/09 06:47:17;;;;;;;4.88;1.25;;;8.40;93.20;;;;;;6067508;23;89206;-69
2022/04/09 06:49:53;;;;;;;5.47;1.30;;;8.40;93.10;;;;;;6066450;23;89332;-69
2022/04/09 06:52:23;;;;;;;6.53;1.55;;;8.20;93.30;;;;;;6043347;23;91002;-69
2022/04/09 06:54:58;;;;;;;6.13;1.80;;;8.10;93.50;;;;;;6067595;23;90834;-69
2022/04/09 06:57:28;;;;;;;4.45;1.90;;;8.30;93.90;;;;;;6067634;23;88830;-69
2022/04/09 06:59:58;;;;;;;7.82;1.98;;;8.70;93.90;;;;;;6067523;23;89360;-69
2022/04/09 07:02:26;;;;;;;4.80;1.98;;;9.30;93.50;;;;;;6067278;23;90816;-69
2022/04/09 07:04:53;;;;;;;4.90;1.70;;;9.80;92.80;;;;;;6067458;23;88679;-70
2022/04/09 07:07:21;;;;;;;5.20;1.92;;;10.10;92.20;;;;;;6066996;23;89207;-69
2022/04/09 07:09:48;;;;;;;5.55;2.47;;;10.40;92.00;;;;;;6042740;23;90814;-69
2022/04/09 07:12:16;;;;;;;5.75;2.20;;;10.80;91.40;;;;;;6068997;23;90649;-69
2022/04/09 07:14:43;;;;;;;4.95;1.88;;;11.20;91.10;;;;;;6068746;23;88408;-69
2022/04/09 07:17:11;;;;;;;8.73;2.45;;;11.40;90.60;;;;;;6093869;23;87923;-69
2022/04/09 07:19:38;;;;;;;7.50;2.40;;;11.80;89.70;;;;;;6071716;23;90882;-69
2022/04/09 07:22:05;;;;;;;6.38;3.55;;;12.10;88.90;;;;;;6098381;23;88618;-69
2022/04/09 07:24:32;;;;;;;9.63;3.05;;;12.40;87.90;;;;;;6072968;23;88578;-69
2022/04/09 07:26:59;;;;;;;7.65;2.42;;;12.70;86.60;;;;;;6072621;23;88370;-69
2022/04/09 07:29:26;;;;;;;7.38;4.13;;;13.00;84.40;;;;;;6072441;23;88127;-70
2022/04/09 07:31:53;;;;;;;6.00;5.43;;;13.00;83.30;;;;;;6097538;23;89592;-70
2022/04/09 07:34:21;;;;;;;12.05;11.15;;;13.10;82.50;;;;;;6072393;23;88184;-70
2022/04/09 07:36:47;;;;;;;6.38;5.70;;;13.40;82.20;;;;;;6097411;23;89825;-70
2022/04/09 07:39:15;;;;;;;8.82;8.13;;;13.60;80.40;;;;;;6098368;23;88443;-69
2022/04/09 07:41:42;;;;;;;6.70;6.05;;;13.80;76.70;;;;;;6098017;23;88034;-69
2022/04/09 07:44:09;;;;;;;21.75;20.75;;;14.10;77.10;;;;;;6097870;23;95639;-69
2022/04/09 07:46:36;;;;;;;22.40;20.73;;;14.50;74.90;;;;;;6047020;23;89286;-69
2022/04/09 07:49:03;;;;;;;5.97;4.35;;;14.80;72.90;;;;;;6071722;23;88493;-69
2022/04/09 07:51:30;;;;;;;6.13;2.10;;;15.10;72.50;;;;;;6098302;23;88633;-69
2022/04/09 07:53:57;;;;;;;5.13;2.10;;;15.30;71.40;;;;;;6072207;23;88551;-69
2022/04/09 07:56:24;;;;;;;7.35;5.65;;;15.20;70.30;;;;;;6097178;23;100275;-69
2022/04/09 07:58:51;;;;;;;8.13;2.40;;;15.10;69.90;;;;;;6097998;23;88209;-69
2022/04/09 08:01:18;;;;;;;6.68;5.28;;;14.80;70.90;;;;;;6071982;23;88674;-69
2022/04/09 08:03:45;;;;;;;1999.90;999.90;;;14.90;71.30;;;;;;6072056;23;88383;-69
2022/04/09 08:06:12;;;;;;;6.45;1.88;;;15.10;69.90;;;;;;6069926;23;91253;-69
2022/04/09 08:08:38;;;;;;;5.00;1.55;;;15.30;68.70;;;;;;6071807;23;90806;-69
2022/04/09 08:11:05;;;;;;;6.68;1.80;;;15.10;67.10;;;;;;6072000;23;88087;-69
2022/04/09 08:13:33;;;;;;;18.17;17.15;;;14.80;69.40;;;;;;6097277;23;106448;-69
2022/04/09 08:16:02;;;;;;;5.63;1.80;;;14.30;68.80;;;;;;6096813;23;88351;-69
2022/04/09 08:18:29;;;;;;;7.53;1.67;;;13.90;70.20;;;;;;6071523;23;94111;-70
2022/04/09 08:21:01;;;;;;;5.72;1.38;;;13.80;72.70;;;;;;6072734;23;89451;-70
2022/04/09 08:23:28;;;;;;;42.08;40.38;;;13.50;70.80;;;;;;6071562;23;91846;-70
2022/04/09 08:25:56;;;;;;;5.68;3.60;;;12.60;69.90;;;;;;6070931;23;88473;-70
2022/04/09 08:28:25;;;;;;;23.30;22.27;;;12.50;73.40;;;;;;6071742;23;91434;-70
2022/04/09 08:30:52;;;;;;;31.35;29.95;;;12.70;74.60;;;;;;6096700;23;88849;-70
2022/04/09 08:33:19;;;;;;;23.88;22.50;;;13.20;73.30;;;;;;6097079;23;89918;-70
2022/04/09 08:35:46;;;;;;;42.00;39.92;;;13.80;72.70;;;;;;6070715;23;88848;-70
2022/04/09 08:38:14;;;;;;;68.53;65.57;;;14.20;69.40;;;;;;6071238;23;88506;-70
2022/04/09 08:40:43;;;;;;;3.55;3.25;;;14.50;69.10;;;;;;6070545;23;89778;-70
2022/04/09 08:43:10;;;;;;;6.78;2.05;;;14.80;66.90;;;;;;6071027;23;91084;-70
2022/04/09 08:45:40;;;;;;;6.38;1.65;;;15.10;67.80;;;;;;6070918;23;99124;-70
2022/04/09 08:48:08;;;;;;;4.97;1.88;;;15.30;67.70;;;;;;6097675;23;89418;-69
2022/04/09 08:50:36;;;;;;;6.15;1.95;;;15.50;67.30;;;;;;6097865;23;88447;-69
2022/04/09 08:53:07;;;;;;;7.18;2.15;;;15.60;67.00;;;;;;6097404;23;88752;-69
2022/04/09 08:55:35;;;;;;;6.28;1.80;;;15.70;66.40;;;;;;6097842;23;87956;-69
2022/04/09 08:58:06;;;;;;;9.38;2.03;;;15.60;66.20;;;;;;6071262;23;89956;-70
2022/04/09 09:00:33;;;;;;;6.07;1.60;;;15.40;66.50;;;;;;6097900;23;89292;-70
2022/04/09 09:03:02;;;;;;;5.90;1.70;;;14.90;65.80;;;;;;6097434;23;96077;-70
2022/04/09 09:05:30;;;;;;;4.90;1.50;;;14.50;66.20;;;;;;6097672;23;87893;-70
2022/04/09 09:07:57;;;;;;;6.15;1.52;;;14.00;67.70;;;;;;6097320;23;87996;-70
2022/04/09 09:10:24;;;;;;;5.20;1.67;;;13.60;67.90;;;;;;6070718;23;92031;-70
2022/04/09 09:12:58;;;;;;;6.95;1.60;;;13.40;69.40;;;;;;6071357;23;92025;-70
2022/04/09 09:15:26;;;;;;;7.97;1.70;;;13.00;68.70;;;;;;6098403;23;88675;-70
2022/04/09 09:17:58;;;;;;;7.40;1.63;;;13.00;72.20;;;;;;6098695;23;88432;-70
2022/04/09 09:20:25;;;;;;;7.75;1.85;;;13.00;70.90;;;;;;6098988;23;88746;-70
2022/04/09 09:22:53;;;;;;;6.97;1.85;;;12.90;69.90;;;;;;6072969;23;87970;-70
2022/04/09 09:25:20;;;;;;;6.78;1.63;;;12.60;66.70;;;;;;6099020;23;87877;-70
2022/04/09 09:27:56;;;;;;;7.13;1.50;;;12.40;66.80;;;;;;6099365;23;88230;-70
2022/04/09 09:30:23;;;;;;;5.07;1.60;;;12.60;70.40;;;;;;6073317;23;88844;-70
2022/04/09 09:33:06;;;;;;;7.50;1.98;;;12.90;70.20;;;;;;6072908;23;88063;-70
2022/04/09 09:35:55;;;;;;;1.33;1.13;;;13.40;70.10;;;;;;6098116;23;88738;-70
2022/04/09 09:38:27;;;;;;;2.45;0.90;;;13.00;68.00;;;;;;6098860;23;88344;-70
2022/04/09 09:40:58;;;;;;;2.10;1.00;;;11.20;96.70;;;;;;6098640;23;88690;-69
2022/04/09 09:43:26;;;;;;;4.95;1.23;;;9.70;98.00;;;;;;6098868;23;88530;-69
2022/04/09 09:45:54;;;;;;;2.20;1.10;;;9.10;98.10;;;;;;6072402;23;97123;-70
2022/04/09 09:48:26;;;;;;;4.72;1.17;;;8.70;96.70;;;;;;6098806;23;88271;-70
2022/04/09 09:50:55;;;;;;;3.58;1.50;;;8.40;96.70;;;;;;6048379;23;91199;-69
2022/04/09 09:53:36;;;;;;;4.38;1.33;;;8.20;96.40;;;;;;6072918;23;93260;-69
2022/04/09 09:56:04;;;;;;;2.95;1.20;;;8.20;97.50;;;;;;6098595;23;87975;-69
2022/04/09 09:58:32;;;;;;;4.95;1.42;;;8.10;96.50;;;;;;6048095;23;89665;-69
2022/04/09 10:01:16;;;;;;;5.57;0.85;;;8.20;97.90;;;;;;6076001;23;89621;-69
2022/04/09 10:03:43;;;;;;;3.53;1.35;;;8.50;98.30;;;;;;6098949;23;89216;-69
2022/04/09 10:06:11;;;;;;;5.70;1.20;;;8.70;98.20;;;;;;6072177;23;89264;-70
2022/04/09 10:08:39;;;;;;;4.32;1.08;;;9.00;98.50;;;;;;6072673;23;88141;-69
2022/04/09 10:11:07;;;;;;;2.35;1.10;;;9.10;96.80;;;;;;6098449;23;88634;-72
2022/04/09 10:13:36;;;;;;;6.53;1.52;;;9.20;95.90;;;;;;6072732;23;88440;-72
2022/04/09 10:16:05;;;;;;;5.20;1.40;;;9.50;95.70;;;;;;6098333;23;88058;-72
2022/04/09 10:18:33;;;;;;;5.72;1.35;;;9.70;95.00;;;;;;6072770;23;91600;-72
2022/04/09 10:21:02;;;;;;;4.20;1.05;;;10.00;96.60;;;;;;6071982;23;91314;-72
2022/04/09 10:23:32;;;;;;;8.18;1.55;;;10.20;93.50;;;;;;6048201;23;90136;-71
2022/04/09 10:26:01;;;;;;;4.82;1.20;;;10.50;93.80;;;;;;6098013;23;88628;-72
2022/04/09 10:28:37;;;;;;;4.38;1.55;;;10.60;92.60;;;;;;6098147;23;100226;-72
2022/04/09 10:31:40;;;;;;;3.45;0.90;;;10.70;93.30;;;;;;6098437;23;88855;-72
2022/04/09 10:34:10;;;;;;;2.83;0.70;;;10.00;92.30;;;;;;5956037;23;88324;-71
2022/04/09 10:36:40;;;;;;;2.88;0.93;;;9.40;92.00;;;;;;6053505;23;88083;-71
2022/04/09 10:39:45;;;;;;;1.27;0.73;;;9.20;94.30;;;;;;6071954;23;90910;-72
2022/04/09 10:42:48;;;;;;;1.17;0.82;;;9.10;93.90;;;;;;6072344;23;92255;-71
2022/04/09 10:45:15;;;;;;;3.17;0.80;;;9.00;94.50;;;;;;6072390;23;91013;-71
2022/04/09 10:48:05;;;;;;;2.55;0.90;;;9.00;95.30;;;;;;6098164;23;98696;-71
2022/04/09 10:50:56;;;;;;;3.13;0.90;;;9.10;94.50;;;;;;6098765;23;88291;-71
2022/04/09 10:53:26;;;;;;;4.80;1.25;;;9.20;95.20;;;;;;6097928;23;89382;-71
2022/04/09 10:56:11;;;;;;;4.22;1.40;;;9.30;95.40;;;;;;6098644;23;89370;-71
2022/04/09 10:58:59;;;;;;;1.83;0.80;;;9.50;95.40;;;;;;6098544;23;87916;-71
2022/04/09 11:01:48;;;;;;;7.60;1.05;;;9.50;93.20;;;;;;6098393;23;88307;-72
2022/04/09 11:04:29;;;;;;;2.97;0.80;;;9.50;92.10;;;;;;6048002;23;89771;-72
2022/04/09 11:07:16;;;;;;;3.05;0.52;;;9.60;92.60;;;;;;6072029;23;91110;-72
2022/04/09 11:09:47;;;;;;;4.95;1.20;;;9.60;91.50;;;;;;6072812;23;90197;-72
2022/04/09 11:12:19;;;;;;;6.15;1.50;;;9.70;91.70;;;;;;6098850;23;87391;-72
2022/04/09 11:14:52;;;;;;;3.50;0.90;;;9.80;90.40;;;;;;6098649;23;88558;-72
2022/04/09 11:17:26;;;;;;;4.40;1.10;;;10.00;90.60;;;;;;6071603;23;91104;-72
2022/04/09 11:19:54;;;;;;;4.22;0.98;;;10.00;89.80;;;;;;6072003;23;88747;-72
2022/04/09 11:22:30;;;;;;;6.40;1.10;;;10.00;89.50;;;;;;6047908;23;96151;-72
2022/04/09 11:24:57;;;;;;;4.18;1.00;;;10.00;88.80;;;;;;6098466;23;88951;-72
2022/04/09 11:27:28;;;;;;;3.20;1.10;;;10.00;87.60;;;;;;6098209;23;88550;-72
2022/04/09 11:29:56;;;;;;;3.80;0.90;;;9.90;89.60;;;;;;6098602;23;87987;-72
2022/04/09 11:32:24;;;;;;;3.45;1.05;;;10.00;90.10;;;;;;6098178;23;88226;-72
2022/04/09 11:34:55;;;;;;;3.92;1.00;;;10.00;87.30;;;;;;6072186;23;88446;-72
2022/04/09 11:37:30;;;;;;;1.52;0.93;;;10.10;86.30;;;;;;6074103;23;88609;-72
2022/04/09 11:40:03;;;;;;;2.40;1.23;;;10.00;85.70;;;;;;6098482;23;88014;-72
2022/04/09 11:42:43;;;;;;;3.20;1.00;;;10.10;87.10;;;;;;6071974;23;89713;-72
2022/04/09 11:45:17;;;;;;;3.53;0.90;;;10.20;84.90;;;;;;6071802;23;92185;-72
2022/04/09 11:47:45;;;;;;;3.25;1.15;;;10.20;85.10;;;;;;6073032;23;89274;-72
2022/04/09 11:50:15;;;;;;;2.90;0.90;;;10.20;85.70;;;;;;6073092;23;87996;-72
2022/04/09 11:52:42;;;;;;;5.68;1.20;;;10.30;88.20;;;;;;6097972;23;100923;-71
2022/04/09 11:55:11;;;;;;;1.95;0.70;;;10.50;88.90;;;;;;6098136;23;88683;-72
2022/04/09 11:57:46;;;;;;;4.75;1.05;;;10.60;87.20;;;;;;6072448;23;88418;-72
2022/04/09 12:00:13;;;;;;;2.92;1.13;;;10.70;86.40;;;;;;6072667;23;88344;-72
2022/04/09 12:02:41;;;;;;;4.65;1.48;;;11.00;86.20;;;;;;6072870;23;88225;-71
2022/04/09 12:05:12;;;;;;;4.80;1.40;;;11.40;84.80;;;;;;6071807;23;91046;-72
2022/04/09 12:07:41;;;;;;;3.42;1.00;;;11.80;84.00;;;;;;6072375;23;88188;-72
2022/04/09 12:10:24;;;;;;;9.48;1.40;;;12.10;81.80;;;;;;6097060;23;102315;-72
2022/04/09 12:13:02;;;;;;;7.88;1.65;;;11.90;82.20;;;;;;6098175;23;88350;-72
2022/04/09 12:15:31;;;;;;;3.22;1.38;;;11.20;83.50;;;;;;6047429;23;88872;-72
2022/04/09 12:17:59;;;;;;;7.25;1.40;;;10.80;86.00;;;;;;6098055;23;88566;-72
2022/04/09 12:20:37;;;;;;;5.03;1.23;;;10.50;86.10;;;;;;6097796;23;88132;-72
2022/04/09 12:23:05;;;;;;;6.90;1.25;;;10.50;87.80;;;;;;6097588;23;93273;-72
2022/04/09 12:25:34;;;;;;;4.35;1.73;;;10.40;85.80;;;;;;6097740;23;88689;-72
2022/04/09 12:28:01;;;;;;;4.00;1.08;;;10.30;93.30;;;;;;6072601;23;88417;-69
2022/04/09 12:30:42;;;;;;;3.22;0.95;;;9.90;93.00;;;;;;6072028;23;88043;-69
2022/04/09 12:33:10;;;;;;;5.18;0.98;;;9.50;92.30;;;;;;6098231;23;88453;-69
2022/04/09 12:35:41;;;;;;;3.63;0.98;;;9.30;94.40;;;;;;6097054;23;89490;-69
2022/04/09 12:38:08;;;;;;;3.78;1.30;;;9.30;95.20;;;;;;6097739;23;89256;-69
2022/04/09 12:40:38;;;;;;;3.45;0.90;;;9.30;95.00;;;;;;6071042;23;88284;-69
2022/04/09 12:43:35;;;;;;;3.47;1.25;;;9.30;93.90;;;;;;6097814;23;88188;-69
2022/04/09 12:46:06;;;;;;;1.75;0.70;;;9.00;92.00;;;;;;6097855;23;87933;-69
2022/04/09 12:48:41;;;;;;;1.27;0.90;;;8.70;92.10;;;;;;6098810;23;88526;-69
2022/04/09 12:51:09;;;;;;;2.30;0.77;;;8.60;92.90;;;;;;6099519;23;87967;-69
2022/04/09 12:53:36;;;;;;;2.55;1.13;;;8.60;93.80;;;;;;6072296;23;103928;-69
2022/04/09 12:56:12;;;;;;;5.45;1.70;;;8.80;94.00;;;;;;6099015;23;88845;-69
2022/04/09 12:58:39;;;;;;;4.05;1.05;;;9.00;93.80;;;;;;6072822;23;88552;-69
2022/04/09 13:01:08;;;;;;;2.97;1.08;;;9.20;94.20;;;;;;6098404;23;88708;-69
2022/04/09 13:03:36;;;;;;;4.00;1.00;;;9.60;94.30;;;;;;6072893;23;88382;-69
2022/04/09 13:06:04;;;;;;;1.77;0.90;;;9.90;93.80;;;;;;6099004;23;88696;-70
2022/04/09 13:08:31;;;;;;;4.78;1.33;;;10.10;91.50;;;;;;6098836;23;88626;-69
2022/04/09 13:10:58;;;;;;;2.88;1.17;;;10.10;90.90;;;;;;6099068;23;89039;-69